Time,TemperatureF,DewpointF,PressureIn,WindDirection,WindDirectionDegrees,WindSpeedMPH,WindSpeedGustMPH,Humidity,HourlyPrecipIn,Conditions,Clouds,dailyrainin,SolarRadiationWatts/m^2,SoftwareType,DateUTC
2013-04-24 00:02:00,60.0,47.0,-100.00,South,185,6.0,14.0,61,0.00,,,0.00,0.000000,,2013-04-24 05:02:00,
2013-04-24 00:32:00,62.0,47.0,-100.00,SSW,198,7.0,15.0,59,0.00,,,0.00,0.000000,,2013-04-24 05:32:00,
2013-04-24 00:42:00,62.0,47.0,-100.00,SSW,198,7.0,15.0,59,0.00,,,0.00,0.000000,,2013-04-24 05:42:00,
2013-04-24 00:52:00,62.0,47.0,-100.00,SSW,198,7.0,15.0,59,0.00,,,0.00,0.000000,,2013-04-24 05:52:00,
2013-04-24 01:02:00,62.0,47.0,-100.00,SSW,198,7.0,15.0,59,0.00,,,0.00,0.000000,,2013-04-24 06:02:00,
2013-04-24 01:33:00,60.0,47.0,-100.00,SSW,210,0.0,14.0,63,0.00,,,0.00,0.000000,,2013-04-24 06:33:00,
2013-04-24 01:42:00,60.0,47.0,-100.00,SSW,210,0.0,14.0,63,0.00,,,0.00,0.000000,,2013-04-24 06:42:00,
2013-04-24 01:52:00,60.0,47.0,-100.00,SSW,210,0.0,14.0,63,0.00,,,0.00,0.000000,,2013-04-24 06:52:00,
2013-04-24 02:02:00,60.0,47.0,-100.00,SSW,210,0.0,14.0,63,0.00,,,0.00,0.000000,,2013-04-24 07:02:00,
2013-04-24 02:32:00,60.0,48.0,-100.00,South,186,6.0,12.0,65,0.00,,,0.00,0.000000,,2013-04-24 07:32:00,
2013-04-24 02:42:00,60.0,48.0,-100.00,South,186,6.0,12.0,65,0.00,,,0.00,0.000000,,2013-04-24 07:42:00,
2013-04-24 02:52:00,60.0,48.0,-100.00,South,186,6.0,12.0,65,0.00,,,0.00,0.000000,,2013-04-24 07:52:00,
2013-04-24 03:02:00,60.0,48.0,-100.00,South,186,6.0,12.0,65,0.00,,,0.00,0.000000,,2013-04-24 08:02:00,
2013-04-24 03:33:00,57.0,48.0,-100.00,SE,141,7.0,13.0,72,0.00,,,0.00,0.000000,,2013-04-24 08:33:00,
2013-04-24 03:42:00,57.0,48.0,-100.00,SE,141,7.0,13.0,72,0.00,,,0.00,0.000000,,2013-04-24 08:42:00,
2013-04-24 03:52:00,57.0,48.0,-100.00,SE,141,7.0,13.0,72,0.00,,,0.00,0.000000,,2013-04-24 08:52:00,
2013-04-24 04:02:00,57.0,48.0,-100.00,SE,141,7.0,13.0,72,0.00,,,0.00,0.000000,,2013-04-24 09:02:00,
2013-04-24 04:33:00,56.0,48.0,-100.00,SE,136,3.0,14.0,75,0.00,,,0.00,0.000000,,2013-04-24 09:33:00,
2013-04-24 04:42:00,56.0,48.0,-100.00,SE,136,3.0,14.0,75,0.00,,,0.00,0.000000,,2013-04-24 09:42:00,
2013-04-24 04:53:00,56.0,48.0,-100.00,SE,136,3.0,14.0,75,0.00,,,0.00,0.000000,,2013-04-24 09:53:00,
2013-04-24 05:02:00,56.0,48.0,-100.00,SE,136,3.0,14.0,75,0.00,,,0.00,0.000000,,2013-04-24 10:02:00,
2013-04-24 05:33:00,59.0,50.0,-100.00,SSW,192,8.0,21.0,72,0.00,,,0.00,0.000000,,2013-04-24 10:33:00,
2013-04-24 05:42:00,59.0,50.0,-100.00,SSW,192,8.0,21.0,72,0.00,,,0.00,0.000000,,2013-04-24 10:42:00,
2013-04-24 05:53:00,59.0,50.0,-100.00,SSW,192,8.0,21.0,72,0.00,,,0.00,0.000000,,2013-04-24 10:53:00,
2013-04-24 06:02:00,59.0,50.0,-100.00,SSW,192,8.0,21.0,72,0.00,,,0.00,0.000000,,2013-04-24 11:02:00,
2013-04-24 06:32:00,59.0,51.0,-100.00,SSW,195,10.0,24.0,74,0.00,,,0.00,1.000000,,2013-04-24 11:32:00,
2013-04-24 06:43:00,59.0,51.0,-100.00,SSW,195,10.0,24.0,74,0.00,,,0.00,1.000000,,2013-04-24 11:43:00,
2013-04-24 06:53:00,59.0,51.0,-100.00,SSW,195,10.0,24.0,74,0.00,,,0.00,1.000000,,2013-04-24 11:53:00,
2013-04-24 07:02:00,59.0,51.0,-100.00,SSW,195,10.0,24.0,74,0.00,,,0.00,1.000000,,2013-04-24 12:02:00,
2013-04-24 07:32:00,59.0,52.0,-100.00,SSW,200,10.0,19.0,77,0.00,,,-99.99,23.000000,,2013-04-24 12:32:00,
2013-04-24 07:42:00,59.0,52.0,-100.00,SSW,200,10.0,19.0,77,0.00,,,-99.99,23.000000,,2013-04-24 12:42:00,
2013-04-24 07:52:00,59.0,52.0,-100.00,SSW,200,10.0,19.0,77,0.00,,,-99.99,23.000000,,2013-04-24 12:52:00,
2013-04-24 08:01:00,59.0,52.0,-100.00,SSW,200,10.0,19.0,77,0.00,,,-99.99,23.000000,,2013-04-24 13:01:00,
2013-04-24 10:33:00,64.0,54.0,-100.00,SSW,203,11.0,26.0,71,-99.99,,,0.00,172.000000,,2013-04-24 15:33:00,
2013-04-24 10:43:00,64.0,54.0,-100.00,SSW,203,11.0,26.0,71,-99.99,,,0.00,172.000000,,2013-04-24 15:43:00,
2013-04-24 10:53:00,64.0,54.0,-100.00,SSW,203,11.0,26.0,71,-99.99,,,0.00,172.000000,,2013-04-24 15:53:00,
2013-04-24 11:03:00,64.0,54.0,-100.00,SSW,203,11.0,26.0,71,-99.99,,,0.00,172.000000,,2013-04-24 16:03:00,
2013-04-24 12:32:00,58.0,57.0,-100.00,WSW,237,9.0,30.0,97,-99.99,,,0.13,49.000000,,2013-04-24 17:32:00,
2013-04-24 12:42:00,58.0,57.0,-100.00,WSW,237,9.0,30.0,97,-99.99,,,0.13,49.000000,,2013-04-24 17:42:00,
2013-04-24 12:52:00,58.0,57.0,-100.00,WSW,237,9.0,30.0,97,-99.99,,,0.13,49.000000,,2013-04-24 17:52:00,
2013-04-24 13:02:00,58.0,57.0,-100.00,WSW,237,9.0,30.0,97,-99.99,,,0.13,49.000000,,2013-04-24 18:02:00,
2013-04-24 13:33:00,58.0,58.0,-100.00,WSW,244,3.0,19.0,100,0.08,,,0.21,50.000000,,2013-04-24 18:33:00,
2013-04-24 13:43:00,58.0,58.0,-100.00,WSW,244,3.0,19.0,100,0.08,,,0.21,50.000000,,2013-04-24 18:43:00,
2013-04-24 13:52:00,58.0,58.0,-100.00,WSW,244,3.0,19.0,100,0.08,,,0.21,50.000000,,2013-04-24 18:52:00,
2013-04-24 14:02:00,58.0,58.0,-100.00,WSW,244,3.0,19.0,100,0.08,,,0.21,50.000000,,2013-04-24 19:02:00,
2013-04-24 14:32:00,58.0,58.0,-100.00,SW,235,6.0,16.0,100,0.00,,,0.21,60.000000,,2013-04-24 19:32:00,
2013-04-24 14:42:00,58.0,58.0,-100.00,SW,235,6.0,16.0,100,0.00,,,0.21,60.000000,,2013-04-24 19:42:00,
2013-04-24 14:52:00,58.0,58.0,-100.00,SW,235,6.0,16.0,100,0.00,,,0.21,60.000000,,2013-04-24 19:52:00,
2013-04-24 15:02:00,58.0,58.0,-100.00,SW,235,6.0,16.0,100,0.00,,,0.21,60.000000,,2013-04-24 20:02:00,
2013-04-24 15:32:00,58.0,58.0,-100.00,WSW,257,7.0,17.0,100,0.00,,,0.21,85.000000,,2013-04-24 20:32:00,
2013-04-24 15:42:00,58.0,58.0,-100.00,WSW,257,7.0,17.0,100,0.00,,,0.21,85.000000,,2013-04-24 20:42:00,
2013-04-24 15:52:00,58.0,58.0,-100.00,WSW,257,7.0,17.0,100,0.00,,,0.21,85.000000,,2013-04-24 20:52:00,
2013-04-24 16:02:00,58.0,58.0,-100.00,WSW,257,7.0,17.0,100,0.00,,,0.21,85.000000,,2013-04-24 21:02:00,
2013-04-24 16:33:00,53.0,53.0,-100.00,NNW,333,5.0,13.0,100,0.00,,,0.21,65.000000,,2013-04-24 21:33:00,
2013-04-24 16:43:00,53.0,53.0,-100.00,NNW,333,5.0,13.0,100,0.00,,,0.21,65.000000,,2013-04-24 21:43:00,
2013-04-24 16:53:00,53.0,53.0,-100.00,NNW,333,5.0,13.0,100,0.00,,,0.21,65.000000,,2013-04-24 21:53:00,
2013-04-24 17:03:00,53.0,53.0,-100.00,NNW,333,5.0,13.0,100,0.00,,,0.21,65.000000,,2013-04-24 22:03:00,
2013-04-24 17:33:00,52.0,52.0,-100.00,NNW,344,3.0,12.0,100,0.01,,,0.22,60.000000,,2013-04-24 22:33:00,
2013-04-24 17:42:00,52.0,52.0,-100.00,NNW,344,3.0,12.0,100,0.01,,,0.22,60.000000,,2013-04-24 22:42:00,
2013-04-24 17:52:00,52.0,52.0,-100.00,NNW,344,3.0,12.0,100,0.01,,,0.22,60.000000,,2013-04-24 22:52:00,
2013-04-24 18:02:00,52.0,52.0,-100.00,NNW,344,3.0,12.0,100,0.01,,,0.22,60.000000,,2013-04-24 23:02:00,
2013-04-24 18:32:00,47.0,47.0,-100.00,NNW,344,9.0,23.0,100,0.01,,,0.23,35.000000,,2013-04-24 23:32:00,
2013-04-24 18:42:00,47.0,47.0,-100.00,NNW,344,9.0,23.0,100,0.01,,,0.23,35.000000,,2013-04-24 23:42:00,
2013-04-24 18:52:00,47.0,47.0,-100.00,NNW,344,9.0,23.0,100,0.01,,,0.23,35.000000,,2013-04-24 23:52:00,
2013-04-24 19:02:00,47.0,47.0,-100.00,NNW,344,9.0,23.0,100,0.01,,,0.23,35.000000,,2013-04-25 00:02:00,
2013-04-24 19:32:00,45.0,45.0,-100.00,NNW,331,7.0,17.0,100,0.00,,,-99.99,16.000000,,2013-04-25 00:32:00,
2013-04-24 19:42:00,45.0,45.0,-100.00,NNW,331,7.0,17.0,100,0.00,,,-99.99,16.000000,,2013-04-25 00:42:00,
2013-04-24 19:52:00,45.0,45.0,-100.00,NNW,331,7.0,17.0,100,0.00,,,-99.99,16.000000,,2013-04-25 00:52:00,
2013-04-24 20:02:00,45.0,45.0,-100.00,NNW,331,7.0,17.0,100,0.00,,,-99.99,16.000000,,2013-04-25 01:02:00,
2013-04-24 20:32:00,44.0,44.0,-100.00,NNW,343,6.0,17.0,100,0.00,,,0.23,1.000000,,2013-04-25 01:32:00,
2013-04-24 20:42:00,44.0,44.0,-100.00,NNW,343,6.0,17.0,100,0.00,,,0.23,1.000000,,2013-04-25 01:42:00,
2013-04-24 20:53:00,44.0,44.0,-100.00,NNW,343,6.0,17.0,100,0.00,,,0.23,1.000000,,2013-04-25 01:53:00,
2013-04-24 21:02:00,44.0,44.0,-100.00,NNW,343,6.0,17.0,100,0.00,,,0.23,1.000000,,2013-04-25 02:02:00,
2013-04-24 21:32:00,43.0,42.0,-100.00,NNW,347,6.0,16.0,98,0.00,,,0.23,0.000000,,2013-04-25 02:32:00,
2013-04-24 21:42:00,43.0,42.0,-100.00,NNW,347,6.0,16.0,98,0.00,,,0.23,0.000000,,2013-04-25 02:42:00,
2013-04-24 21:52:00,43.0,42.0,-100.00,NNW,347,6.0,16.0,98,0.00,,,0.23,0.000000,,2013-04-25 02:52:00,
2013-04-24 22:02:00,43.0,42.0,-100.00,NNW,347,6.0,16.0,98,0.00,,,0.23,0.000000,,2013-04-25 03:02:00,
2013-04-24 22:33:00,42.0,40.0,-100.00,North,356,6.0,15.0,92,0.00,,,0.23,0.000000,,2013-04-25 03:33:00,
2013-04-24 22:43:00,42.0,40.0,-100.00,North,356,6.0,15.0,92,0.00,,,0.23,0.000000,,2013-04-25 03:43:00,
2013-04-24 22:52:00,42.0,40.0,-100.00,North,356,6.0,15.0,92,0.00,,,0.23,0.000000,,2013-04-25 03:52:00,
2013-04-24 23:03:00,42.0,40.0,-100.00,North,356,6.0,15.0,92,0.00,,,0.23,0.000000,,2013-04-25 04:03:00,
2013-04-24 23:33:00,42.0,40.0,-100.00,North,2,4.0,16.0,91,0.00,,,0.23,0.000000,,2013-04-25 04:33:00,
2013-04-24 23:43:00,42.0,40.0,-100.00,North,2,4.0,16.0,91,0.00,,,0.23,0.000000,,2013-04-25 04:43:00,
2013-04-24 23:52:00,42.0,40.0,-100.00,North,2,4.0,16.0,91,0.00,,,0.23,0.000000,,2013-04-25 04:52:00,